BOX779 TBPB-TNCC
Flight info
| Callsign | BOX779 |
|---|---|
| Flight time | 1h 28m |
| Altitude | 34000 |
| Route | RAKAN A561 MTA A563 SIRAS UL219 MIDUR DCT ODLAP BON1B |
| Aircraft | B77L/H-VW/N |
Departure
| Time | 2026-04-23 14:23 |
|---|---|
| Airport | Grantley Adams International Airport (TBPB) |
Arrival
| Time | 2026-04-23 15:51 |
|---|---|
| Airport | Hato International Airport (TNCC) |
| Time | Latitude | Longitude | Altitude | Speed | Heading |
|---|---|---|---|---|---|
| 2026-04-23 14:10 | 13.07932 | -59.48492 | 180 ft | 0 kts | 346° |
| 2026-04-23 14:15 | 13.07915 | -59.48491 | 180 ft | 3 kts | 24° |
| 2026-04-23 14:15 | 13.07899 | -59.48503 | 180 ft | 3 kts | 68° |
| 2026-04-23 14:15 | 13.07895 | -59.48515 | 180 ft | 0 kts | 97° |
| 2026-04-23 14:19 | 13.07887 | -59.48457 | 180 ft | 11 kts | 98° |
| 2026-04-23 14:19 | 13.07878 | -59.48379 | 180 ft | 11 kts | 93° |
| 2026-04-23 14:19 | 13.07890 | -59.48300 | 179 ft | 11 kts | 76° |
| 2026-04-23 14:20 | 13.07908 | -59.48224 | 180 ft | 21 kts | 76° |
| 2026-04-23 14:20 | 13.07954 | -59.48034 | 180 ft | 21 kts | 76° |
| 2026-04-23 14:20 | 13.07989 | -59.47890 | 180 ft | 21 kts | 76° |
| 2026-04-23 14:20 | 13.08001 | -59.47817 | 180 ft | 15 kts | 94° |
| 2026-04-23 14:21 | 13.07926 | -59.47758 | 181 ft | 15 kts | 168° |
| 2026-04-23 14:21 | 13.07841 | -59.47746 | 180 ft | 9 kts | 198° |
| 2026-04-23 14:21 | 13.07818 | -59.47790 | 180 ft | 0 kts | 258° |
| 2026-04-23 14:21 | 13.07818 | -59.47792 | 180 ft | 0 kts | 258° |
| 2026-04-23 14:22 | 13.07817 | -59.47796 | 180 ft | 1 kts | 258° |
| 2026-04-23 14:22 | 13.07808 | -59.47836 | 180 ft | 19 kts | 256° |
| 2026-04-23 14:22 | 13.07716 | -59.48214 | 178 ft | 98 kts | 256° |
| 2026-04-23 14:22 | 13.07480 | -59.49171 | 181 ft | 178 kts | 256° |
| 2026-04-23 14:23 | 13.07119 | -59.50546 | 525 ft | 215 kts | 251° |
| 2026-04-23 14:23 | 13.06568 | -59.51960 | 1377 ft | 212 kts | 244° |
| 2026-04-23 14:23 | 13.05894 | -59.53274 | 2392 ft | 201 kts | 240° |
| 2026-04-23 14:23 | 13.05206 | -59.54526 | 3279 ft | 200 kts | 240° |
| 2026-04-23 14:24 | 13.04508 | -59.55816 | 3683 ft | 217 kts | 240° |
| 2026-04-23 14:24 | 13.03759 | -59.57245 | 3942 ft | 235 kts | 241° |
| 2026-04-23 14:24 | 13.02973 | -59.58786 | 4372 ft | 250 kts | 242° |
| 2026-04-23 14:24 | 13.02167 | -59.60404 | 4980 ft | 260 kts | 243° |
| 2026-04-23 14:25 | 13.01340 | -59.62097 | 5564 ft | 270 kts | 243° |
| 2026-04-23 14:25 | 13.00500 | -59.63846 | 6261 ft | 276 kts | 243° |
| 2026-04-23 14:25 | 12.99657 | -59.65622 | 7046 ft | 277 kts | 243° |
| 2026-04-23 14:25 | 12.98830 | -59.67377 | 7857 ft | 277 kts | 243° |
| 2026-04-23 14:26 | 12.97986 | -59.69179 | 8587 ft | 282 kts | 244° |
| 2026-04-23 14:26 | 12.97136 | -59.71004 | 9360 ft | 284 kts | 244° |
| 2026-04-23 14:26 | 12.96284 | -59.72837 | 10131 ft | 286 kts | 244° |
| 2026-04-23 14:26 | 12.95411 | -59.74718 | 10575 ft | 301 kts | 244° |
| 2026-04-23 14:27 | 12.94473 | -59.76739 | 10746 ft | 326 kts | 244° |
| 2026-04-23 14:27 | 12.93460 | -59.78926 | 10927 ft | 350 kts | 244° |
| 2026-04-23 14:27 | 12.92395 | -59.81226 | 11224 ft | 368 kts | 244° |
| 2026-04-23 14:27 | 12.91283 | -59.83630 | 11820 ft | 378 kts | 244° |
| 2026-04-23 14:28 | 12.90149 | -59.86083 | 12552 ft | 383 kts | 244° |
| 2026-04-23 14:28 | 12.89002 | -59.88563 | 13345 ft | 387 kts | 243° |
| 2026-04-23 14:28 | 12.87840 | -59.91074 | 14026 ft | 393 kts | 244° |
| 2026-04-23 14:28 | 12.86659 | -59.93627 | 14647 ft | 398 kts | 244° |
| 2026-04-23 14:29 | 12.85464 | -59.96208 | 15305 ft | 402 kts | 244° |
| 2026-04-23 14:29 | 12.84258 | -59.98812 | 15949 ft | 406 kts | 244° |
| 2026-04-23 14:29 | 12.83085 | -60.01344 | 16559 ft | 410 kts | 244° |
| 2026-04-23 14:29 | 12.81855 | -60.04000 | 17145 ft | 415 kts | 244° |
| 2026-04-23 14:30 | 12.80609 | -60.06687 | 17741 ft | 419 kts | 244° |
| 2026-04-23 14:30 | 12.79351 | -60.09400 | 18347 ft | 423 kts | 244° |
| 2026-04-23 14:30 | 12.78084 | -60.12132 | 18842 ft | 427 kts | 244° |
| 2026-04-23 14:30 | 12.76804 | -60.14890 | 19346 ft | 430 kts | 244° |
| 2026-04-23 14:31 | 12.75533 | -60.17628 | 19898 ft | 432 kts | 244° |
| 2026-04-23 14:31 | 12.74237 | -60.20420 | 20366 ft | 436 kts | 244° |
| 2026-04-23 14:31 | 12.72932 | -60.23230 | 20894 ft | 438 kts | 244° |
| 2026-04-23 14:31 | 12.71619 | -60.26055 | 21406 ft | 441 kts | 244° |
| 2026-04-23 14:32 | 12.70291 | -60.28913 | 21808 ft | 446 kts | 244° |
| 2026-04-23 14:32 | 12.68952 | -60.31793 | 22341 ft | 448 kts | 245° |
| 2026-04-23 14:32 | 12.67610 | -60.34679 | 22845 ft | 451 kts | 245° |
| 2026-04-23 14:32 | 12.66254 | -60.37593 | 23235 ft | 455 kts | 245° |
| 2026-04-23 14:33 | 12.64889 | -60.40527 | 23686 ft | 458 kts | 245° |
| 2026-04-23 14:33 | 12.63516 | -60.43476 | 24077 ft | 460 kts | 245° |
| 2026-04-23 14:33 | 12.62131 | -60.46450 | 24480 ft | 462 kts | 245° |
| 2026-04-23 14:33 | 12.60760 | -60.49395 | 24894 ft | 463 kts | 245° |
| 2026-04-23 14:34 | 12.59369 | -60.52380 | 25287 ft | 465 kts | 245° |
| 2026-04-23 14:34 | 12.57971 | -60.55378 | 25675 ft | 467 kts | 244° |
| 2026-04-23 14:34 | 12.56569 | -60.58384 | 26067 ft | 469 kts | 244° |
| 2026-04-23 14:34 | 12.55157 | -60.61409 | 26460 ft | 471 kts | 244° |
| 2026-04-23 14:35 | 12.53744 | -60.64437 | 26830 ft | 473 kts | 244° |
| 2026-04-23 14:35 | 12.52324 | -60.67479 | 27211 ft | 474 kts | 244° |
| 2026-04-23 14:35 | 12.50900 | -60.70529 | 27573 ft | 476 kts | 244° |
| 2026-04-23 14:35 | 12.49464 | -60.73605 | 27932 ft | 478 kts | 244° |
| 2026-04-23 14:36 | 12.48028 | -60.76679 | 28278 ft | 480 kts | 244° |
| 2026-04-23 14:36 | 12.46581 | -60.79775 | 28583 ft | 483 kts | 244° |
| 2026-04-23 14:36 | 12.45129 | -60.82881 | 28907 ft | 485 kts | 244° |
| 2026-04-23 14:36 | 12.43671 | -60.85999 | 29234 ft | 487 kts | 244° |
| 2026-04-23 14:37 | 12.42206 | -60.89130 | 29554 ft | 488 kts | 244° |
| 2026-04-23 14:37 | 12.40741 | -60.92263 | 29905 ft | 489 kts | 244° |
| 2026-04-23 14:37 | 12.39275 | -60.95395 | 30298 ft | 487 kts | 244° |
| 2026-04-23 14:37 | 12.37834 | -60.98471 | 30718 ft | 485 kts | 244° |
| 2026-04-23 14:38 | 12.36427 | -61.01475 | 31132 ft | 482 kts | 244° |
| 2026-04-23 14:38 | 12.34978 | -61.04567 | 31543 ft | 481 kts | 244° |
| 2026-04-23 14:38 | 12.33535 | -61.07646 | 31903 ft | 481 kts | 244° |
| 2026-04-23 14:38 | 12.32091 | -61.10724 | 32297 ft | 479 kts | 244° |
| 2026-04-23 14:39 | 12.30652 | -61.13792 | 32725 ft | 477 kts | 243° |
| 2026-04-23 14:39 | 12.29220 | -61.16844 | 33160 ft | 475 kts | 243° |
| 2026-04-23 14:39 | 12.27794 | -61.19884 | 33585 ft | 473 kts | 243° |
| 2026-04-23 14:39 | 12.26372 | -61.22913 | 33975 ft | 472 kts | 243° |
| 2026-04-23 14:40 | 12.23512 | -61.29001 | 34007 ft | 474 kts | 243° |
| 2026-04-23 14:40 | 12.20662 | -61.35064 | 33999 ft | 471 kts | 243° |
| 2026-04-23 14:41 | 12.17833 | -61.41074 | 34009 ft | 471 kts | 243° |
| 2026-04-23 14:41 | 12.14979 | -61.47136 | 34009 ft | 472 kts | 243° |
| 2026-04-23 14:42 | 12.12149 | -61.53146 | 34013 ft | 473 kts | 243° |
| 2026-04-23 14:42 | 12.09295 | -61.59204 | 34014 ft | 473 kts | 243° |
| 2026-04-23 14:43 | 12.06437 | -61.65264 | 34022 ft | 474 kts | 243° |
| 2026-04-23 14:43 | 12.03574 | -61.71334 | 34021 ft | 474 kts | 243° |
| 2026-04-23 14:44 | 12.00705 | -61.77411 | 34023 ft | 475 kts | 243° |
| 2026-04-23 14:44 | 11.97792 | -61.83444 | 34020 ft | 474 kts | 242° |
| 2026-04-23 14:45 | 11.94813 | -61.89449 | 33999 ft | 474 kts | 241° |
| 2026-04-23 14:45 | 11.91835 | -61.95462 | 34003 ft | 474 kts | 241° |
| 2026-04-23 14:46 | 11.88926 | -62.01359 | 34007 ft | 474 kts | 241° |
| 2026-04-23 14:46 | 11.85982 | -62.07329 | 34004 ft | 474 kts | 241° |
| 2026-04-23 14:47 | 11.83017 | -62.13337 | 34005 ft | 474 kts | 241° |
| 2026-04-23 14:47 | 11.80048 | -62.19348 | 34006 ft | 474 kts | 241° |
| 2026-04-23 14:48 | 11.77057 | -62.25341 | 34001 ft | 474 kts | 241° |
| 2026-04-23 14:48 | 11.74047 | -62.31337 | 34007 ft | 475 kts | 241° |
| 2026-04-23 14:49 | 11.71035 | -62.37339 | 34006 ft | 476 kts | 241° |
| 2026-04-23 14:49 | 11.68019 | -62.43354 | 34006 ft | 476 kts | 241° |
| 2026-04-23 14:50 | 11.65017 | -62.49341 | 34004 ft | 476 kts | 241° |
| 2026-04-23 14:50 | 11.61993 | -62.55364 | 33997 ft | 477 kts | 241° |
| 2026-04-23 14:51 | 11.58959 | -62.61406 | 34005 ft | 480 kts | 241° |
| 2026-04-23 14:51 | 11.55904 | -62.67486 | 34011 ft | 482 kts | 241° |
| 2026-04-23 14:52 | 11.52855 | -62.73551 | 34007 ft | 485 kts | 241° |
| 2026-04-23 14:52 | 11.49768 | -62.79689 | 34004 ft | 486 kts | 241° |
| 2026-04-23 14:53 | 11.46702 | -62.85845 | 33999 ft | 487 kts | 242° |
| 2026-04-23 14:53 | 11.43658 | -62.92029 | 34004 ft | 488 kts | 242° |
| 2026-04-23 14:54 | 11.40607 | -62.98219 | 33997 ft | 489 kts | 242° |
| 2026-04-23 14:54 | 11.37595 | -63.04315 | 34001 ft | 488 kts | 242° |
| 2026-04-23 14:55 | 11.34544 | -63.10484 | 33999 ft | 487 kts | 242° |
| 2026-04-23 14:55 | 11.31507 | -63.16619 | 34001 ft | 487 kts | 242° |
| 2026-04-23 14:56 | 11.28461 | -63.22770 | 34000 ft | 486 kts | 242° |
| 2026-04-23 14:56 | 11.25414 | -63.28919 | 33999 ft | 486 kts | 241° |
| 2026-04-23 14:57 | 11.22364 | -63.35070 | 34000 ft | 486 kts | 241° |
| 2026-04-23 14:57 | 11.19271 | -63.41185 | 34000 ft | 486 kts | 240° |
| 2026-04-23 14:58 | 11.16134 | -63.47276 | 34005 ft | 486 kts | 240° |
| 2026-04-23 14:58 | 11.12999 | -63.53375 | 33990 ft | 487 kts | 241° |
| 2026-04-23 14:59 | 11.09876 | -63.59466 | 34000 ft | 489 kts | 241° |
| 2026-04-23 14:59 | 11.06704 | -63.65655 | 34004 ft | 491 kts | 241° |
| 2026-04-23 15:00 | 11.03557 | -63.71790 | 34005 ft | 493 kts | 241° |
| 2026-04-23 15:00 | 11.00381 | -63.77978 | 34005 ft | 487 kts | 241° |
| 2026-04-23 15:01 | 10.97279 | -63.84020 | 33993 ft | 481 kts | 241° |
| 2026-04-23 15:01 | 10.94174 | -63.90061 | 34001 ft | 481 kts | 242° |
| 2026-04-23 15:02 | 10.92341 | -63.96566 | 34006 ft | 485 kts | 265° |
| 2026-04-23 15:02 | 10.92424 | -64.00008 | 34004 ft | 488 kts | 277° |
| 2026-04-23 15:02 | 10.93148 | -64.03277 | 34007 ft | 488 kts | 284° |
| 2026-04-23 15:03 | 10.95003 | -64.09951 | 34010 ft | 491 kts | 283° |
| 2026-04-23 15:03 | 10.96756 | -64.16677 | 34006 ft | 492 kts | 282° |
| 2026-04-23 15:04 | 10.98443 | -64.23394 | 33997 ft | 493 kts | 282° |
| 2026-04-23 15:04 | 11.00144 | -64.30162 | 34002 ft | 493 kts | 282° |
| 2026-04-23 15:05 | 11.01843 | -64.36914 | 33988 ft | 492 kts | 282° |
| 2026-04-23 15:05 | 11.03541 | -64.43676 | 33996 ft | 492 kts | 282° |
| 2026-04-23 15:06 | 11.05236 | -64.50435 | 34001 ft | 492 kts | 282° |
| 2026-04-23 15:06 | 11.06916 | -64.57137 | 34001 ft | 493 kts | 282° |
| 2026-04-23 15:07 | 11.08674 | -64.63884 | 33997 ft | 494 kts | 284° |
| 2026-04-23 15:07 | 11.10748 | -64.70574 | 34001 ft | 495 kts | 285° |
| 2026-04-23 15:08 | 11.12885 | -64.77260 | 34001 ft | 495 kts | 285° |
| 2026-04-23 15:09 | 11.16038 | -64.87268 | 33997 ft | 495 kts | 285° |
| 2026-04-23 15:09 | 11.18115 | -64.93927 | 34000 ft | 495 kts | 285° |
| 2026-04-23 15:10 | 11.19849 | -64.99496 | 34004 ft | 496 kts | 285° |
| 2026-04-23 15:10 | 11.21897 | -65.06075 | 34002 ft | 496 kts | 285° |
| 2026-04-23 15:11 | 11.23983 | -65.12777 | 34003 ft | 496 kts | 285° |
| 2026-04-23 15:11 | 11.26065 | -65.19471 | 34003 ft | 496 kts | 285° |
| 2026-04-23 15:12 | 11.28144 | -65.26162 | 34001 ft | 495 kts | 285° |
| 2026-04-23 15:12 | 11.30214 | -65.32828 | 34000 ft | 496 kts | 284° |
| 2026-04-23 15:13 | 11.32291 | -65.39525 | 34009 ft | 496 kts | 284° |
| 2026-04-23 15:13 | 11.34373 | -65.46242 | 34004 ft | 496 kts | 284° |
| 2026-04-23 15:14 | 11.36447 | -65.52941 | 34002 ft | 496 kts | 284° |
| 2026-04-23 15:14 | 11.38510 | -65.59611 | 34002 ft | 495 kts | 284° |
| 2026-04-23 15:15 | 11.40581 | -65.66314 | 34007 ft | 494 kts | 284° |
| 2026-04-23 15:15 | 11.42644 | -65.72992 | 34002 ft | 493 kts | 284° |
| 2026-04-23 15:16 | 11.44698 | -65.79651 | 34007 ft | 491 kts | 284° |
| 2026-04-23 15:16 | 11.46734 | -65.86262 | 34003 ft | 490 kts | 284° |
| 2026-04-23 15:17 | 11.48773 | -65.92891 | 34004 ft | 490 kts | 284° |
| 2026-04-23 15:17 | 11.50810 | -65.99522 | 34006 ft | 489 kts | 284° |
| 2026-04-23 15:18 | 11.52802 | -66.06009 | 34004 ft | 488 kts | 284° |
| 2026-04-23 15:18 | 11.54831 | -66.12619 | 34005 ft | 488 kts | 284° |
| 2026-04-23 15:19 | 11.56858 | -66.19226 | 34005 ft | 488 kts | 284° |
| 2026-04-23 15:19 | 11.58883 | -66.25829 | 34009 ft | 488 kts | 284° |
| 2026-04-23 15:20 | 11.60892 | -66.32389 | 34008 ft | 487 kts | 284° |
| 2026-04-23 15:20 | 11.62912 | -66.38994 | 34004 ft | 487 kts | 284° |
| 2026-04-23 15:21 | 11.64928 | -66.45590 | 34005 ft | 486 kts | 284° |
| 2026-04-23 15:21 | 11.66942 | -66.52186 | 34003 ft | 486 kts | 284° |
| 2026-04-23 15:22 | 11.68951 | -66.58770 | 34003 ft | 486 kts | 284° |
| 2026-04-23 15:22 | 11.70963 | -66.65361 | 34002 ft | 486 kts | 284° |
| 2026-04-23 15:23 | 11.72960 | -66.71901 | 34002 ft | 486 kts | 284° |
| 2026-04-23 15:23 | 11.74969 | -66.78493 | 34001 ft | 486 kts | 284° |
| 2026-04-23 15:24 | 11.76978 | -66.85086 | 34003 ft | 487 kts | 284° |
| 2026-04-23 15:24 | 11.78622 | -66.91757 | 34013 ft | 483 kts | 275° |
| 2026-04-23 15:25 | 11.79375 | -66.98548 | 34011 ft | 481 kts | 273° |
| 2026-04-23 15:25 | 11.80059 | -67.05194 | 33998 ft | 481 kts | 274° |
| 2026-04-23 15:26 | 11.80786 | -67.11983 | 34002 ft | 481 kts | 274° |
| 2026-04-23 15:26 | 11.81532 | -67.18760 | 34000 ft | 480 kts | 274° |
| 2026-04-23 15:27 | 11.82280 | -67.25534 | 34006 ft | 480 kts | 274° |
| 2026-04-23 15:27 | 11.83021 | -67.32258 | 34001 ft | 479 kts | 274° |
| 2026-04-23 15:28 | 11.83763 | -67.39019 | 33996 ft | 479 kts | 274° |
| 2026-04-23 15:28 | 11.84134 | -67.42427 | 33221 ft | 491 kts | 274° |
| 2026-04-23 15:28 | 11.84514 | -67.45916 | 32408 ft | 493 kts | 274° |
| 2026-04-23 15:28 | 11.84893 | -67.49389 | 31735 ft | 490 kts | 274° |
| 2026-04-23 15:29 | 11.85271 | -67.52836 | 31160 ft | 485 kts | 274° |
| 2026-04-23 15:29 | 11.85640 | -67.56209 | 30587 ft | 481 kts | 274° |
| 2026-04-23 15:29 | 11.86010 | -67.59599 | 30005 ft | 478 kts | 275° |
| 2026-04-23 15:29 | 11.86376 | -67.62965 | 29356 ft | 475 kts | 275° |
| 2026-04-23 15:30 | 11.86740 | -67.66301 | 28758 ft | 470 kts | 275° |
| 2026-04-23 15:30 | 11.87099 | -67.69606 | 28192 ft | 466 kts | 275° |
| 2026-04-23 15:30 | 11.87454 | -67.72883 | 27630 ft | 462 kts | 275° |
| 2026-04-23 15:30 | 11.87806 | -67.76133 | 27084 ft | 459 kts | 275° |
| 2026-04-23 15:31 | 11.88154 | -67.79360 | 26548 ft | 455 kts | 275° |
| 2026-04-23 15:31 | 11.88501 | -67.82574 | 26011 ft | 452 kts | 275° |
| 2026-04-23 15:31 | 11.88839 | -67.85710 | 25490 ft | 449 kts | 275° |
| 2026-04-23 15:31 | 11.89180 | -67.88876 | 24946 ft | 447 kts | 275° |
| 2026-04-23 15:32 | 11.89519 | -67.92022 | 24415 ft | 445 kts | 275° |
| 2026-04-23 15:32 | 11.89855 | -67.95154 | 23891 ft | 443 kts | 275° |
| 2026-04-23 15:32 | 11.90192 | -67.98290 | 23317 ft | 441 kts | 276° |
| 2026-04-23 15:32 | 11.90513 | -68.01281 | 22771 ft | 439 kts | 275° |
| 2026-04-23 15:33 | 11.90843 | -68.04360 | 22240 ft | 435 kts | 276° |
| 2026-04-23 15:33 | 11.91172 | -68.07427 | 21729 ft | 432 kts | 275° |
| 2026-04-23 15:33 | 11.91493 | -68.10430 | 21232 ft | 429 kts | 276° |
| 2026-04-23 15:33 | 11.91815 | -68.13444 | 20744 ft | 426 kts | 276° |
| 2026-04-23 15:34 | 11.92135 | -68.16432 | 20246 ft | 421 kts | 276° |
| 2026-04-23 15:34 | 11.92452 | -68.19400 | 19771 ft | 418 kts | 276° |
| 2026-04-23 15:34 | 11.92829 | -68.22342 | 19257 ft | 416 kts | 278° |
| 2026-04-23 15:34 | 11.93294 | -68.25249 | 18821 ft | 413 kts | 279° |
| 2026-04-23 15:35 | 11.93784 | -68.28132 | 18371 ft | 410 kts | 279° |
| 2026-04-23 15:35 | 11.94267 | -68.30987 | 17914 ft | 406 kts | 279° |
| 2026-04-23 15:35 | 11.94738 | -68.33817 | 17431 ft | 403 kts | 279° |
| 2026-04-23 15:35 | 11.95198 | -68.36636 | 16955 ft | 400 kts | 279° |
| 2026-04-23 15:36 | 11.95649 | -68.39433 | 16481 ft | 397 kts | 279° |
| 2026-04-23 15:36 | 11.96093 | -68.42208 | 16013 ft | 395 kts | 279° |
| 2026-04-23 15:36 | 11.96534 | -68.44970 | 15550 ft | 392 kts | 278° |
| 2026-04-23 15:36 | 11.96967 | -68.47677 | 15089 ft | 390 kts | 278° |
| 2026-04-23 15:37 | 11.97403 | -68.50409 | 14631 ft | 388 kts | 279° |
| 2026-04-23 15:37 | 11.97837 | -68.53122 | 14163 ft | 387 kts | 278° |
| 2026-04-23 15:37 | 11.98153 | -68.54915 | 13853 ft | 386 kts | 281° |
| 2026-04-23 15:37 | 11.98901 | -68.58492 | 13170 ft | 384 kts | 282° |
| 2026-04-23 15:38 | 11.99486 | -68.61142 | 12696 ft | 381 kts | 282° |
| 2026-04-23 15:38 | 12.00064 | -68.63765 | 12232 ft | 378 kts | 282° |
| 2026-04-23 15:38 | 12.00632 | -68.66379 | 11783 ft | 376 kts | 282° |
| 2026-04-23 15:38 | 12.01193 | -68.68982 | 11317 ft | 373 kts | 283° |
| 2026-04-23 15:39 | 12.01744 | -68.71566 | 10938 ft | 369 kts | 282° |
| 2026-04-23 15:39 | 12.02274 | -68.74060 | 10788 ft | 358 kts | 283° |
| 2026-04-23 15:39 | 12.02794 | -68.76511 | 10616 ft | 348 kts | 283° |
| 2026-04-23 15:39 | 12.03298 | -68.78895 | 10473 ft | 338 kts | 283° |
| 2026-04-23 15:40 | 12.03788 | -68.81211 | 10325 ft | 329 kts | 283° |
| 2026-04-23 15:40 | 12.04264 | -68.83463 | 10193 ft | 319 kts | 283° |
| 2026-04-23 15:40 | 12.04724 | -68.85645 | 10066 ft | 310 kts | 283° |
| 2026-04-23 15:40 | 12.05174 | -68.87773 | 9837 ft | 303 kts | 283° |
| 2026-04-23 15:41 | 12.05612 | -68.89850 | 9536 ft | 295 kts | 283° |
| 2026-04-23 15:41 | 12.06034 | -68.91846 | 9123 ft | 279 kts | 283° |
| 2026-04-23 15:41 | 12.06440 | -68.93770 | 8807 ft | 276 kts | 283° |
| 2026-04-23 15:41 | 12.06844 | -68.95685 | 8484 ft | 274 kts | 283° |
| 2026-04-23 15:42 | 12.07246 | -68.97584 | 8157 ft | 272 kts | 282° |
| 2026-04-23 15:42 | 12.07649 | -68.99465 | 7836 ft | 270 kts | 284° |
| 2026-04-23 15:42 | 12.08150 | -69.01247 | 7474 ft | 270 kts | 288° |
| 2026-04-23 15:42 | 12.08718 | -69.03046 | 7156 ft | 268 kts | 288° |
| 2026-04-23 15:43 | 12.09295 | -69.04861 | 6842 ft | 269 kts | 288° |
| 2026-04-23 15:43 | 12.09866 | -69.06690 | 6531 ft | 271 kts | 287° |
| 2026-04-23 15:43 | 12.10426 | -69.08501 | 6386 ft | 262 kts | 287° |
| 2026-04-23 15:43 | 12.10960 | -69.10243 | 6171 ft | 253 kts | 287° |
| 2026-04-23 15:44 | 12.11481 | -69.11944 | 5868 ft | 248 kts | 287° |
| 2026-04-23 15:44 | 12.11989 | -69.13602 | 5604 ft | 240 kts | 287° |
| 2026-04-23 15:44 | 12.12527 | -69.15179 | 5339 ft | 231 kts | 300° |
| 2026-04-23 15:44 | 12.13607 | -69.16297 | 5059 ft | 218 kts | 334° |
| 2026-04-23 15:45 | 12.15022 | -69.16694 | 4795 ft | 206 kts | 359° |
| 2026-04-23 15:45 | 12.16366 | -69.16563 | 4560 ft | 191 kts | 14° |
| 2026-04-23 15:45 | 12.17633 | -69.16286 | 4305 ft | 181 kts | 16° |
| 2026-04-23 15:45 | 12.18813 | -69.16022 | 4109 ft | 168 kts | 15° |
| 2026-04-23 15:46 | 12.19938 | -69.15771 | 3884 ft | 167 kts | 16° |
| 2026-04-23 15:46 | 12.21078 | -69.15515 | 3732 ft | 168 kts | 20° |
| 2026-04-23 15:46 | 12.22019 | -69.14898 | 3475 ft | 160 kts | 63° |
| 2026-04-23 15:46 | 12.22218 | -69.13821 | 3286 ft | 157 kts | 96° |
| 2026-04-23 15:47 | 12.22126 | -69.12692 | 3040 ft | 161 kts | 96° |
| 2026-04-23 15:47 | 12.22027 | -69.11551 | 2837 ft | 161 kts | 97° |
| 2026-04-23 15:47 | 12.21879 | -69.10427 | 2624 ft | 158 kts | 100° |
| 2026-04-23 15:47 | 12.21676 | -69.09334 | 2418 ft | 156 kts | 101° |
| 2026-04-23 15:48 | 12.21453 | -69.08239 | 2240 ft | 159 kts | 102° |
| 2026-04-23 15:48 | 12.21221 | -69.07122 | 1999 ft | 158 kts | 102° |
| 2026-04-23 15:48 | 12.20992 | -69.06041 | 1791 ft | 154 kts | 102° |
| 2026-04-23 15:48 | 12.20776 | -69.04986 | 1615 ft | 153 kts | 103° |
| 2026-04-23 15:49 | 12.20550 | -69.03910 | 1429 ft | 156 kts | 103° |
| 2026-04-23 15:49 | 12.20326 | -69.02842 | 1192 ft | 150 kts | 104° |
| 2026-04-23 15:49 | 12.20114 | -69.01841 | 1003 ft | 139 kts | 102° |
| 2026-04-23 15:49 | 12.19911 | -69.00888 | 815 ft | 136 kts | 103° |
| 2026-04-23 15:50 | 12.19707 | -68.99947 | 679 ft | 137 kts | 101° |
| 2026-04-23 15:50 | 12.19518 | -68.98986 | 504 ft | 142 kts | 100° |
| 2026-04-23 15:50 | 12.19325 | -68.98012 | 321 ft | 137 kts | 102° |
| 2026-04-23 15:50 | 12.19112 | -68.97051 | 105 ft | 137 kts | 99° |
| 2026-04-23 15:51 | 12.18924 | -68.96134 | 45 ft | 123 kts | 102° |
| 2026-04-23 15:51 | 12.18770 | -68.95405 | 46 ft | 83 kts | 102° |
| 2026-04-23 15:51 | 12.18668 | -68.94915 | 50 ft | 50 kts | 102° |
| 2026-04-23 15:51 | 12.18616 | -68.94676 | 47 ft | 30 kts | 102° |
| 2026-04-23 15:52 | 12.18580 | -68.94510 | 46 ft | 17 kts | 110° |
| 2026-04-23 15:52 | 12.18486 | -68.94467 | 48 ft | 16 kts | 186° |
| 2026-04-23 15:52 | 12.18413 | -68.94533 | 49 ft | 15 kts | 264° |
| 2026-04-23 15:52 | 12.18431 | -68.94640 | 49 ft | 15 kts | 282° |
| 2026-04-23 15:53 | 12.18453 | -68.94746 | 48 ft | 15 kts | 282° |
| 2026-04-23 15:53 | 12.18477 | -68.94853 | 49 ft | 15 kts | 283° |
| 2026-04-23 15:53 | 12.18500 | -68.94959 | 48 ft | 15 kts | 283° |
| 2026-04-23 15:53 | 12.18521 | -68.95066 | 48 ft | 15 kts | 281° |
| 2026-04-23 15:54 | 12.18543 | -68.95178 | 48 ft | 18 kts | 282° |
| 2026-04-23 15:54 | 12.18571 | -68.95303 | 47 ft | 18 kts | 283° |
| 2026-04-23 15:54 | 12.18599 | -68.95428 | 47 ft | 18 kts | 282° |
| 2026-04-23 15:54 | 12.18626 | -68.95554 | 45 ft | 18 kts | 282° |
| 2026-04-23 15:55 | 12.18653 | -68.95680 | 47 ft | 18 kts | 282° |
| 2026-04-23 15:55 | 12.18678 | -68.95806 | 47 ft | 18 kts | 282° |
| 2026-04-23 15:55 | 12.18704 | -68.95932 | 47 ft | 18 kts | 282° |
| 2026-04-23 15:55 | 12.18730 | -68.96058 | 47 ft | 18 kts | 281° |
| 2026-04-23 15:56 | 12.18755 | -68.96183 | 47 ft | 18 kts | 282° |
| 2026-04-23 15:56 | 12.18781 | -68.96305 | 47 ft | 13 kts | 282° |
| 2026-04-23 15:56 | 12.18783 | -68.96381 | 47 ft | 10 kts | 240° |
| 2026-04-23 15:56 | 12.18719 | -68.96414 | 48 ft | 11 kts | 180° |
| 2026-04-23 15:57 | 12.18660 | -68.96372 | 48 ft | 11 kts | 110° |
| 2026-04-23 15:57 | 12.18653 | -68.96331 | 48 ft | 0 kts | 101° |